Time;durP1;ratioP1;P1;durP2;ratioP2;P2;SDS_P1;SDS_P2;PMS_P1;PMS_P2;Temp;Humidity;BMP_temperature;BMP_pressure;BME280_temperature;BME280_humidity;BME280_pressure;Samples;Min_cycle;Max_cycle;Signal;HPM_P1;HPM_P2
2023/01/06 00:00:20;;;;;;;2.08;1.98;;;8.90;78.00;;;;;;5006629;28;20196;-74
2023/01/06 00:02:47;;;;;;;2.47;2.27;;;8.90;78.00;;;;;;4965203;28;1124853;-73
2023/01/06 00:05:13;;;;;;;2.70;2.50;;;8.90;77.80;;;;;;5007286;28;20216;-73
2023/01/06 00:07:39;;;;;;;4.17;2.70;;;9.00;77.90;;;;;;5006984;28;20192;-73
2023/01/06 00:10:06;;;;;;;3.77;2.97;;;9.10;77.60;;;;;;5007759;28;20247;-75
2023/01/06 00:12:31;;;;;;;3.22;2.38;;;9.10;77.50;;;;;;5007765;28;20200;-75
2023/01/06 00:14:57;;;;;;;2.53;2.13;;;9.10;77.50;;;;;;5015289;28;20594;-74
2023/01/06 00:17:23;;;;;;;3.97;2.80;;;9.20;77.50;;;;;;5022697;28;20188;-74
2023/01/06 00:19:49;;;;;;;2.13;2.05;;;9.20;77.40;;;;;;5009811;28;20243;-75
2023/01/06 00:22:15;;;;;;;3.60;2.70;;;9.20;77.20;;;;;;5007048;28;20635;-74
2023/01/06 00:24:40;;;;;;;3.28;2.80;;;9.30;77.20;;;;;;5006918;28;20196;-74
2023/01/06 00:27:06;;;;;;;3.17;2.88;;;9.20;77.30;;;;;;5006590;28;20291;-74
2023/01/06 00:29:32;;;;;;;3.95;3.03;;;9.30;77.30;;;;;;5006311;28;20640;-74
2023/01/06 00:31:59;;;;;;;2.33;2.22;;;9.30;77.30;;;;;;5007430;28;20262;-74
2023/01/06 00:34:25;;;;;;;2.55;2.13;;;9.30;77.30;;;;;;5006137;28;20184;-74
2023/01/06 00:36:51;;;;;;;2.10;1.95;;;9.30;77.20;;;;;;5003978;28;20240;-74
2023/01/06 00:39:16;;;;;;;2.83;2.50;;;9.30;77.10;;;;;;5002993;28;20197;-74
2023/01/06 00:44:27;;;;;;;2.75;2.55;;;9.40;76.90;;;;;;4998107;28;20188;-74
2023/01/06 00:46:52;;;;;;;5.43;2.42;;;9.40;76.90;;;;;;5006378;28;20181;-74
2023/01/06 00:49:18;;;;;;;2.45;2.25;;;9.40;77.00;;;;;;5003245;28;20216;-74
2023/01/06 00:51:44;;;;;;;4.25;2.80;;;9.40;77.10;;;;;;5005978;28;20192;-74
2023/01/06 00:54:11;;;;;;;6.43;3.00;;;9.30;77.40;;;;;;4998152;28;20568;-74
2023/01/06 00:56:38;;;;;;;4.55;2.53;;;9.30;77.60;;;;;;5006021;28;21319;-74
2023/01/06 00:59:05;;;;;;;2.45;2.28;;;9.30;77.70;;;;;;5003268;28;20802;-74
2023/01/06 01:01:31;;;;;;;2.53;1.98;;;9.30;77.90;;;;;;5011639;28;20224;-74
2023/01/06 01:03:57;;;;;;;2.30;2.10;;;9.30;78.10;;;;;;4996949;28;20268;-74
2023/01/06 01:06:23;;;;;;;4.10;2.35;;;9.30;78.30;;;;;;5006825;28;20224;-74
2023/01/06 01:08:55;;;;;;;2.13;1.83;;;9.30;78.90;;;;;;5007412;28;20181;-74
2023/01/06 01:14:06;;;;;;;1.80;1.70;;;9.40;79.00;;;;;;5006909;28;20242;-74
2023/01/06 01:16:32;;;;;;;2.53;1.42;;;9.40;79.40;;;;;;5010158;28;20582;-74
2023/01/06 01:18:58;;;;;;;2.42;1.92;;;9.40;79.50;;;;;;5005923;28;20177;-75
2023/01/06 01:21:24;;;;;;;2.10;1.90;;;9.40;79.60;;;;;;5002238;28;20565;-74
2023/01/06 01:23:50;;;;;;;5.05;1.35;;;9.40;79.70;;;;;;5005962;28;20204;-74
2023/01/06 01:26:16;;;;;;;1.80;1.70;;;9.40;79.80;;;;;;5007315;28;20311;-74
2023/01/06 01:28:41;;;;;;;1.98;1.63;;;9.50;79.50;;;;;;5004747;28;20212;-73
2023/01/06 01:31:07;;;;;;;1.55;1.45;;;9.50;79.40;;;;;;5007249;28;20181;-74
2023/01/06 01:33:33;;;;;;;1.55;1.45;;;9.50;79.40;;;;;;5006294;28;20885;-74
2023/01/06 01:36:05;;;;;;;1.00;1.00;;;9.50;79.30;;;;;;5006209;28;20246;-74
2023/01/06 01:38:31;;;;;;;1.45;1.35;;;9.60;79.20;;;;;;5003792;28;20208;-74
2023/01/06 01:40:57;;;;;;;1.55;1.45;;;9.50;79.10;;;;;;5005828;28;20224;-74
2023/01/06 01:43:22;;;;;;;0.93;0.93;;;9.50;79.10;;;;;;5005678;28;20217;-74
2023/01/06 01:45:52;;;;;;;1.13;1.13;;;9.50;79.10;;;;;;5005772;28;20657;-74
2023/01/06 01:48:21;;;;;;;2.97;1.35;;;9.60;79.10;;;;;;5000976;28;20268;-74
2023/01/06 01:50:50;;;;;;;2.25;1.73;;;9.60;79.10;;;;;;5001878;28;20177;-75
2023/01/06 01:53:26;;;;;;;1.60;1.48;;;9.60;79.10;;;;;;5001431;28;20213;-74
2023/01/06 01:55:55;;;;;;;2.15;1.52;;;9.50;79.10;;;;;;4997244;28;20722;-74
2023/01/06 01:58:28;;;;;;;0.90;0.90;;;9.50;79.10;;;;;;5005074;28;20268;-75
2023/01/06 02:00:54;;;;;;;1.38;1.38;;;9.50;79.10;;;;;;5004979;28;20191;-74
2023/01/06 02:03:21;;;;;;;1.63;1.50;;;9.50;79.10;;;;;;5002197;28;20192;-74
2023/01/06 02:05:54;;;;;;;2.47;1.17;;;9.50;78.90;;;;;;5006145;28;20637;-74
2023/01/06 02:08:19;;;;;;;2.90;1.52;;;9.60;78.60;;;;;;5004750;28;20192;-74
2023/01/06 02:10:45;;;;;;;0.98;0.98;;;9.60;78.60;;;;;;4998372;28;20182;-74
2023/01/06 02:13:11;;;;;;;1.38;1.27;;;9.70;78.50;;;;;;5005891;28;20221;-74
2023/01/06 02:15:37;;;;;;;1.58;1.00;;;9.60;78.60;;;;;;5005477;28;20273;-74
2023/01/06 02:18:11;;;;;;;2.05;1.30;;;9.70;78.50;;;;;;5002375;28;20276;-74
2023/01/06 02:20:52;;;;;;;0.90;0.90;;;9.80;78.20;;;;;;5002560;28;20752;-74
2023/01/06 02:23:48;;;;;;;1.13;1.13;;;9.70;78.50;;;;;;5005031;28;20576;-74
2023/01/06 02:26:26;;;;;;;1.15;1.15;;;9.70;78.50;;;;;;5004806;28;20216;-74
2023/01/06 02:28:57;;;;;;;0.75;0.68;;;9.60;78.60;;;;;;4999615;28;20189;-74
2023/01/06 02:31:58;;;;;;;1.13;1.02;;;9.50;78.80;;;;;;5003101;28;20196;-74
2023/01/06 02:34:49;;;;;;;1.40;1.20;;;9.40;78.70;;;;;;5006321;28;20670;-74
2023/01/06 02:37:24;;;;;;;1.20;1.10;;;9.40;78.60;;;;;;5004479;28;20181;-74
2023/01/06 02:40:25;;;;;;;2.83;1.20;;;9.50;78.50;;;;;;5003832;28;20188;-74
2023/01/06 02:43:08;;;;;;;2.03;1.10;;;9.50;78.30;;;;;;4963700;28;20658;-75
2023/01/06 02:46:13;;;;;;;1.02;1.00;;;9.40;78.20;;;;;;4962302;28;20253;-74
2023/01/06 02:48:54;;;;;;;1.00;1.00;;;9.50;78.10;;;;;;4962388;28;20261;-75
2023/01/06 02:51:45;;;;;;;1.00;1.00;;;9.40;78.10;;;;;;4957206;28;20634;-74
2023/01/06 02:54:17;;;;;;;1.30;1.20;;;9.40;78.10;;;;;;4962101;28;20206;-75
2023/01/06 02:56:49;;;;;;;1.13;1.13;;;9.40;78.10;;;;;;4962291;28;20285;-74
2023/01/06 02:59:30;;;;;;;1.55;1.45;;;9.40;78.10;;;;;;4961443;28;20198;-75
2023/01/06 03:01:58;;;;;;;1.05;1.05;;;9.40;78.10;;;;;;4959524;28;20201;-75
2023/01/06 03:04:32;;;;;;;1.40;1.40;;;9.40;78.00;;;;;;4967407;28;20193;-75
2023/01/06 03:07:01;;;;;;;1.58;1.33;;;9.40;78.00;;;;;;4964077;28;20779;-75
2023/01/06 03:09:34;;;;;;;1.27;1.27;;;9.40;78.00;;;;;;4962238;28;20190;-75
2023/01/06 03:12:06;;;;;;;0.77;0.77;;;9.40;77.80;;;;;;4962843;28;20230;-75
2023/01/06 03:14:36;;;;;;;1.20;1.13;;;9.40;77.60;;;;;;4962076;28;20467;-75
2023/01/06 03:17:02;;;;;;;1.30;1.17;;;9.40;77.50;;;;;;4963666;28;20627;-75
2023/01/06 03:19:29;;;;;;;0.82;0.82;;;9.40;77.50;;;;;;4984466;28;20197;-74
2023/01/06 03:21:55;;;;;;;1.05;1.05;;;9.30;77.50;;;;;;4993437;28;20177;-75
2023/01/06 03:24:21;;;;;;;0.90;0.90;;;9.40;77.50;;;;;;5004508;28;20946;-74
2023/01/06 03:26:47;;;;;;;1.23;1.13;;;9.40;77.30;;;;;;5003861;28;20220;-74
2023/01/06 03:29:17;;;;;;;1.40;0.85;;;9.30;77.30;;;;;;5004094;28;20192;-75
2023/01/06 03:32:24;;;;;;;0.93;0.93;;;9.30;77.30;;;;;;5010459;28;20654;-75
2023/01/06 03:35:02;;;;;;;1.75;0.80;;;9.20;77.50;;;;;;4964130;28;20610;-74
2023/01/06 03:37:39;;;;;;;0.77;0.77;;;9.20;77.60;;;;;;4959881;28;20669;-74
2023/01/06 03:40:28;;;;;;;0.93;0.93;;;9.20;77.70;;;;;;4962793;28;20589;-75
2023/01/06 03:43:23;;;;;;;1.00;1.00;;;9.10;78.00;;;;;;4967474;28;20729;-73
2023/01/06 03:46:13;;;;;;;0.63;0.63;;;9.10;77.80;;;;;;4884617;29;20233;-75
2023/01/06 03:49:00;;;;;;;0.80;0.80;;;9.10;77.70;;;;;;4885260;29;20201;-74
2023/01/06 03:51:37;;;;;;;1.17;0.80;;;9.10;77.80;;;;;;4881661;29;20195;-75
2023/01/06 03:54:26;;;;;;;1.10;1.00;;;9.00;78.00;;;;;;4887195;29;20211;-75
2023/01/06 03:57:16;;;;;;;1.10;0.90;;;9.00;77.80;;;;;;4887572;29;20196;-74
2023/01/06 03:59:52;;;;;;;0.70;0.70;;;9.00;77.80;;;;;;4886417;29;20237;-74
2023/01/06 04:02:19;;;;;;;0.60;0.60;;;9.10;77.80;;;;;;4885794;29;20394;-74
2023/01/06 04:05:10;;;;;;;1.20;1.20;;;9.10;77.40;;;;;;4886116;29;20642;-75
2023/01/06 04:07:39;;;;;;;1.73;0.97;;;9.10;77.30;;;;;;4878578;29;20188;-75
2023/01/06 04:10:06;;;;;;;1.27;0.93;;;9.10;77.60;;;;;;4885269;29;20205;-75
2023/01/06 04:12:38;;;;;;;2.63;0.93;;;9.10;77.30;;;;;;4908468;29;20335;-75
2023/01/06 04:15:07;;;;;;;2.00;1.40;;;9.10;77.20;;;;;;4923431;29;20583;-74
2023/01/06 04:17:33;;;;;;;0.90;0.90;;;9.10;77.20;;;;;;4924675;29;20255;-74
2023/01/06 04:20:00;;;;;;;0.98;0.98;;;9.00;77.40;;;;;;4923328;29;20648;-75
2023/01/06 04:22:25;;;;;;;1.27;1.13;;;9.10;77.30;;;;;;4968274;28;20200;-75
2023/01/06 04:24:51;;;;;;;1.10;1.10;;;9.10;77.20;;;;;;5001321;28;20938;-74
2023/01/06 04:27:17;;;;;;;1.03;1.00;;;9.00;77.30;;;;;;5001909;28;20196;-74
2023/01/06 04:29:42;;;;;;;3.60;0.90;;;9.00;77.40;;;;;;5003506;28;20177;-74
2023/01/06 04:32:08;;;;;;;1.10;1.10;;;8.90;77.50;;;;;;4999781;28;20177;-74
2023/01/06 04:34:33;;;;;;;0.87;0.87;;;8.90;77.50;;;;;;5002752;28;20248;-73
2023/01/06 04:36:59;;;;;;;1.35;0.80;;;8.90;77.50;;;;;;5000573;28;20681;-73
2023/01/06 04:39:25;;;;;;;3.10;1.13;;;8.80;77.50;;;;;;5003568;28;20181;-73
2023/01/06 04:41:50;;;;;;;1.80;0.60;;;8.90;77.50;;;;;;5002701;28;20794;-75
2023/01/06 04:44:16;;;;;;;0.77;0.77;;;8.80;77.60;;;;;;5006319;28;20196;-73
2023/01/06 04:46:42;;;;;;;1.05;0.93;;;8.80;77.60;;;;;;5002442;28;20607;-74
2023/01/06 04:49:07;;;;;;;0.88;0.88;;;8.80;77.50;;;;;;5004030;28;20790;-73
2023/01/06 04:51:33;;;;;;;0.95;0.68;;;8.90;77.40;;;;;;5006055;28;20180;-73
2023/01/06 04:53:59;;;;;;;0.70;0.70;;;8.90;77.20;;;;;;5009257;28;20191;-73
2023/01/06 04:56:24;;;;;;;2.37;0.90;;;9.00;76.80;;;;;;5013503;28;20188;-75
2023/01/06 04:58:54;;;;;;;0.70;0.70;;;8.90;76.80;;;;;;5007033;28;20683;-73
2023/01/06 05:01:20;;;;;;;0.60;0.60;;;9.00;76.70;;;;;;5003617;28;20212;-73
2023/01/06 05:03:46;;;;;;;0.90;0.90;;;8.90;76.80;;;;;;5006622;28;20181;-73
2023/01/06 05:06:12;;;;;;;0.77;0.77;;;8.90;76.90;;;;;;5006489;28;20767;-75
2023/01/06 05:08:39;;;;;;;0.60;0.60;;;8.90;76.80;;;;;;5005241;28;20303;-75
2023/01/06 05:11:11;;;;;;;0.60;0.60;;;8.90;76.90;;;;;;4996939;28;20220;-74
2023/01/06 05:13:37;;;;;;;0.70;0.70;;;8.80;77.20;;;;;;5007036;28;20180;-74
2023/01/06 05:16:23;;;;;;;0.82;0.70;;;8.80;77.20;;;;;;4997116;28;20193;-74
2023/01/06 05:18:49;;;;;;;2.30;0.70;;;8.90;77.00;;;;;;5001217;28;20238;-75
2023/01/06 05:21:14;;;;;;;2.35;0.65;;;8.90;76.80;;;;;;5005745;28;20663;-75
2023/01/06 05:23:40;;;;;;;0.93;0.90;;;8.80;77.30;;;;;;5008757;28;20223;-75
2023/01/06 05:26:06;;;;;;;1.23;1.00;;;8.70;77.40;;;;;;5005527;28;20323;-74
2023/01/06 05:28:33;;;;;;;0.70;0.70;;;8.80;77.30;;;;;;5005448;28;20189;-73
2023/01/06 05:31:04;;;;;;;0.80;0.80;;;8.90;77.20;;;;;;4999833;28;20194;-74
2023/01/06 05:33:30;;;;;;;0.82;0.75;;;8.90;76.90;;;;;;5000923;28;20251;-74
2023/01/06 05:36:04;;;;;;;2.17;0.95;;;8.90;77.00;;;;;;5004528;28;20216;-75
2023/01/06 05:38:30;;;;;;;2.05;0.80;;;8.90;77.40;;;;;;5004485;28;20271;-75
2023/01/06 05:40:56;;;;;;;1.43;0.70;;;8.80;77.50;;;;;;5006424;28;20319;-75
2023/01/06 05:43:23;;;;;;;1.87;0.97;;;8.80;77.60;;;;;;5016988;28;20267;-75
2023/01/06 05:45:48;;;;;;;0.80;0.80;;;8.70;77.80;;;;;;5007570;28;20221;-77
2023/01/06 05:48:14;;;;;;;0.57;0.57;;;8.60;77.80;;;;;;5006463;28;20213;-76
2023/01/06 05:50:40;;;;;;;0.77;0.77;;;8.60;77.80;;;;;;5006941;28;20185;-76
2023/01/06 05:53:06;;;;;;;1.27;1.17;;;8.60;77.60;;;;;;5012190;28;20195;-76
2023/01/06 05:55:31;;;;;;;0.87;0.87;;;8.70;77.50;;;;;;5013388;28;20244;-76
2023/01/06 05:57:57;;;;;;;0.80;0.80;;;8.70;77.30;;;;;;5009434;28;20268;-76
2023/01/06 06:00:23;;;;;;;0.63;0.63;;;8.60;77.00;;;;;;5016174;28;20236;-76
2023/01/06 06:02:49;;;;;;;1.07;0.90;;;8.60;76.80;;;;;;5005341;28;20200;-77
2023/01/06 06:05:14;;;;;;;1.17;0.77;;;8.70;76.60;;;;;;5006752;28;20224;-76
2023/01/06 06:07:40;;;;;;;1.00;1.00;;;8.60;76.60;;;;;;5005593;28;20633;-77
2023/01/06 06:10:07;;;;;;;1.00;0.90;;;8.70;76.50;;;;;;4999800;28;20250;-77
2023/01/06 06:12:33;;;;;;;1.03;1.03;;;8.70;76.30;;;;;;5006255;28;20184;-77
2023/01/06 06:14:58;;;;;;;0.50;0.50;;;8.70;76.20;;;;;;5005001;28;20195;-75
2023/01/06 06:17:24;;;;;;;1.43;0.90;;;8.70;76.10;;;;;;5005843;28;20231;-75
2023/01/06 06:19:50;;;;;;;0.70;0.70;;;8.60;76.10;;;;;;5005266;28;20177;-75
2023/01/06 06:22:16;;;;;;;0.87;0.87;;;8.70;75.90;;;;;;5007393;28;20193;-75
2023/01/06 06:24:41;;;;;;;0.60;0.60;;;8.70;75.70;;;;;;5005830;28;20173;-74
2023/01/06 06:27:07;;;;;;;1.10;0.93;;;8.80;75.40;;;;;;5004763;28;20247;-77
2023/01/06 06:29:33;;;;;;;2.33;0.60;;;8.90;75.30;;;;;;5006427;28;20246;-77
2023/01/06 06:31:58;;;;;;;0.60;0.60;;;9.00;75.00;;;;;;5006391;28;20177;-75
2023/01/06 06:34:24;;;;;;;0.80;0.80;;;9.10;74.90;;;;;;5004087;28;20568;-76
2023/01/06 06:36:50;;;;;;;1.47;1.10;;;9.10;74.70;;;;;;5005062;28;20193;-75
2023/01/06 06:39:15;;;;;;;2.77;0.70;;;9.20;74.70;;;;;;5005093;28;20198;-74
2023/01/06 06:41:41;;;;;;;0.70;0.70;;;9.30;74.00;;;;;;5005431;28;20185;-74
2023/01/06 06:44:07;;;;;;;0.60;0.60;;;9.50;73.80;;;;;;5001182;28;20438;-75
2023/01/06 06:46:32;;;;;;;0.90;0.80;;;9.60;73.40;;;;;;4979008;28;20269;-75
2023/01/06 06:48:58;;;;;;;0.95;0.95;;;9.80;72.70;;;;;;5002836;28;20200;-75
2023/01/06 06:51:24;;;;;;;0.73;0.73;;;9.90;72.60;;;;;;4998223;28;20236;-74
2023/01/06 06:53:50;;;;;;;1.83;0.82;;;10.10;71.80;;;;;;5003383;28;20185;-73
2023/01/06 06:56:17;;;;;;;0.63;0.60;;;10.30;71.60;;;;;;5006042;28;20590;-73
2023/01/06 06:58:43;;;;;;;0.63;0.63;;;10.50;72.10;;;;;;5005077;28;20184;-73
2023/01/06 07:01:12;;;;;;;1.23;0.80;;;10.80;70.70;;;;;;5005036;28;20197;-75
2023/01/06 07:03:38;;;;;;;0.85;0.85;;;11.00;70.00;;;;;;5009384;28;20173;-75
2023/01/06 07:06:06;;;;;;;0.70;0.70;;;11.20;69.30;;;;;;5013824;28;20973;-76
2023/01/06 07:08:32;;;;;;;0.98;0.80;;;11.40;68.70;;;;;;5004669;28;20169;-75
2023/01/06 07:10:58;;;;;;;3.40;0.90;;;11.50;68.60;;;;;;5005017;28;20177;-75
2023/01/06 07:13:24;;;;;;;0.63;0.63;;;11.70;68.40;;;;;;5004493;28;20177;-75
2023/01/06 07:15:49;;;;;;;0.52;0.52;;;11.80;67.80;;;;;;4987939;28;20193;-75
2023/01/06 07:18:15;;;;;;;0.73;0.73;;;11.90;68.10;;;;;;5005122;28;20711;-75
2023/01/06 07:20:47;;;;;;;0.65;0.60;;;12.00;67.40;;;;;;4994642;28;20173;-75
2023/01/06 07:23:13;;;;;;;0.80;0.80;;;12.10;67.20;;;;;;4985836;28;20188;-74
2023/01/06 07:25:38;;;;;;;0.90;0.88;;;12.20;67.30;;;;;;5000906;28;20211;-75
2023/01/06 07:28:05;;;;;;;0.80;0.75;;;12.40;67.20;;;;;;5000842;28;20302;-75
2023/01/06 07:30:32;;;;;;;0.57;0.40;;;12.70;66.30;;;;;;5003468;28;20192;-75
2023/01/06 07:32:58;;;;;;;0.90;0.90;;;12.70;65.80;;;;;;5004414;28;20248;-76
2023/01/06 07:35:23;;;;;;;0.80;0.80;;;12.70;65.40;;;;;;5002727;28;20590;-75
2023/01/06 07:37:49;;;;;;;0.60;0.60;;;12.70;65.20;;;;;;5004220;28;20192;-75
2023/01/06 07:40:16;;;;;;;0.60;0.60;;;12.70;65.30;;;;;;5004571;28;20184;-75
2023/01/06 07:42:42;;;;;;;1.60;0.60;;;12.80;65.30;;;;;;5004585;28;20264;-75
2023/01/06 07:45:08;;;;;;;0.60;0.60;;;12.70;65.10;;;;;;5004229;28;20711;-75
2023/01/06 07:47:34;;;;;;;0.68;0.52;;;12.80;65.40;;;;;;5003592;28;20267;-75
2023/01/06 07:50:00;;;;;;;0.50;0.50;;;12.90;65.00;;;;;;5003948;28;20272;-75
2023/01/06 07:52:25;;;;;;;0.70;0.70;;;13.00;64.90;;;;;;5004599;28;20193;-75
2023/01/06 07:54:51;;;;;;;0.88;0.60;;;13.00;64.50;;;;;;5003748;28;20195;-75
2023/01/06 07:57:17;;;;;;;0.45;0.45;;;13.20;64.90;;;;;;4980864;28;20188;-75
2023/01/06 07:59:42;;;;;;;0.50;0.50;;;13.30;64.20;;;;;;4999498;28;20216;-75
2023/01/06 08:02:11;;;;;;;1.65;0.50;;;13.40;64.60;;;;;;5002782;28;20652;-75
2023/01/06 08:04:37;;;;;;;0.70;0.70;;;13.50;64.00;;;;;;5007718;28;20216;-75
2023/01/06 08:07:03;;;;;;;0.52;0.52;;;13.50;63.80;;;;;;5004898;28;20883;-74
2023/01/06 08:09:29;;;;;;;1.58;0.77;;;13.40;64.20;;;;;;5004791;28;20224;-74
2023/01/06 08:11:54;;;;;;;0.68;0.57;;;13.20;63.90;;;;;;5004559;28;20177;-75
2023/01/06 08:14:20;;;;;;;1.20;0.73;;;13.10;64.80;;;;;;5001305;28;20272;-74
2023/01/06 08:16:46;;;;;;;0.60;0.60;;;13.20;64.50;;;;;;5001700;28;20650;-74
2023/01/06 08:19:11;;;;;;;0.60;0.60;;;13.30;64.20;;;;;;5011995;28;20653;-75
2023/01/06 08:21:37;;;;;;;0.55;0.55;;;13.50;64.30;;;;;;5008917;28;20719;-74
2023/01/06 08:24:04;;;;;;;0.40;0.40;;;13.80;63.50;;;;;;5007388;28;20213;-75
2023/01/06 08:26:30;;;;;;;0.35;0.35;;;13.60;63.20;;;;;;4988325;28;20275;-74
2023/01/06 08:28:56;;;;;;;1.00;0.90;;;13.50;63.30;;;;;;5006316;28;20180;-73
2023/01/06 08:31:22;;;;;;;0.60;0.60;;;13.20;63.80;;;;;;5006436;28;20626;-75
2023/01/06 08:33:49;;;;;;;0.47;0.47;;;13.10;64.20;;;;;;5007950;28;20193;-75
2023/01/06 08:36:17;;;;;;;0.93;0.68;;;13.10;64.70;;;;;;4990398;28;20185;-75
2023/01/06 08:38:43;;;;;;;0.57;0.50;;;13.00;64.50;;;;;;5004968;28;20861;-75
2023/01/06 08:41:09;;;;;;;0.80;0.80;;;12.70;64.50;;;;;;5007584;28;20615;-75
2023/01/06 08:43:37;;;;;;;1.40;0.73;;;12.50;65.10;;;;;;5019313;28;20260;-75
2023/01/06 08:46:05;;;;;;;1.55;1.05;;;12.40;65.40;;;;;;4995036;28;20215;-75
2023/01/06 08:48:32;;;;;;;0.65;0.65;;;12.20;65.60;;;;;;5004228;28;20209;-74
2023/01/06 08:51:06;;;;;;;1.42;1.10;;;12.10;65.70;;;;;;4987878;28;20173;-74
2023/01/06 08:53:33;;;;;;;1.00;0.82;;;12.00;65.80;;;;;;5003050;28;20188;-74
2023/01/06 08:55:59;;;;;;;0.35;0.35;;;12.00;66.00;;;;;;5015392;28;20207;-74
2023/01/06 08:58:25;;;;;;;0.63;0.63;;;11.90;65.90;;;;;;4998345;28;20178;-75
2023/01/06 09:00:51;;;;;;;3.35;0.82;;;11.80;65.70;;;;;;5015152;28;20673;-76
2023/01/06 09:03:16;;;;;;;0.40;0.40;;;11.80;66.00;;;;;;5010823;28;20681;-76
2023/01/06 09:05:42;;;;;;;0.77;0.77;;;12.00;66.00;;;;;;4999082;28;20205;-76
2023/01/06 09:08:08;;;;;;;0.40;0.40;;;12.30;64.90;;;;;;4996695;28;20188;-75
2023/01/06 09:10:37;;;;;;;0.65;0.55;;;12.50;64.20;;;;;;5011259;28;20212;-76
2023/01/06 09:13:02;;;;;;;0.40;0.40;;;12.80;63.80;;;;;;5003317;28;21000;-76
2023/01/06 09:15:28;;;;;;;0.50;0.50;;;13.00;63.30;;;;;;5007197;28;20208;-75
2023/01/06 09:17:54;;;;;;;0.70;0.70;;;13.10;63.10;;;;;;5022018;28;20209;-76
2023/01/06 09:20:19;;;;;;;0.47;0.40;;;13.50;62.90;;;;;;5012587;28;20185;-75
2023/01/06 09:22:45;;;;;;;0.47;0.47;;;13.80;61.60;;;;;;5009545;28;20180;-74
2023/01/06 09:25:11;;;;;;;0.57;0.57;;;14.00;61.00;;;;;;5012333;28;20220;-74
2023/01/06 09:27:36;;;;;;;0.40;0.40;;;13.80;60.90;;;;;;5006940;28;20243;-76
2023/01/06 09:30:03;;;;;;;0.30;0.30;;;13.60;61.10;;;;;;5006499;28;20204;-75
2023/01/06 09:32:29;;;;;;;1.17;0.65;;;13.20;61.90;;;;;;5008718;28;20196;-76
2023/01/06 09:34:55;;;;;;;2.67;0.95;;;13.30;62.00;;;;;;5025995;28;20184;-75
2023/01/06 09:37:20;;;;;;;0.38;0.30;;;13.10;62.00;;;;;;5010389;28;20177;-75
2023/01/06 09:39:46;;;;;;;0.40;0.40;;;12.90;62.40;;;;;;4998499;28;20177;-75
2023/01/06 09:42:24;;;;;;;0.50;0.32;;;12.90;62.90;;;;;;4990533;28;20180;-75
2023/01/06 09:44:55;;;;;;;0.30;0.30;;;12.90;62.40;;;;;;5006349;28;20438;-75
2023/01/06 09:47:27;;;;;;;1.00;0.57;;;12.90;62.40;;;;;;4993149;28;20196;-75
2023/01/06 09:50:08;;;;;;;1.85;0.30;;;13.10;62.60;;;;;;5006364;28;20670;-75
2023/01/06 09:52:53;;;;;;;0.40;0.32;;;13.20;62.30;;;;;;5005363;28;20188;-75
2023/01/06 09:55:32;;;;;;;0.40;0.40;;;13.70;62.00;;;;;;4993812;28;20236;-75
2023/01/06 09:58:04;;;;;;;0.30;0.20;;;14.30;62.00;;;;;;4998666;28;20670;-75
2023/01/06 10:00:38;;;;;;;0.32;0.32;;;14.90;60.70;;;;;;4992132;28;20192;-75
2023/01/06 10:03:10;;;;;;;0.25;0.25;;;15.40;59.60;;;;;;4991623;28;20189;-75
2023/01/06 10:05:45;;;;;;;1.75;0.40;;;15.70;57.80;;;;;;5005046;28;20792;-74
2023/01/06 10:08:31;;;;;;;2.28;0.30;;;15.70;57.90;;;;;;5005652;28;20186;-76
2023/01/06 10:12:07;;;;;;;0.32;0.32;;;15.90;57.20;;;;;;5005637;28;20706;-75
2023/01/06 10:15:00;;;;;;;0.30;0.30;;;16.00;56.60;;;;;;4869449;29;20194;-75
2023/01/06 10:17:56;;;;;;;0.40;0.30;;;16.00;56.70;;;;;;4863644;29;20266;-74
2023/01/06 10:20:47;;;;;;;0.35;0.25;;;16.00;56.60;;;;;;4861462;29;20205;-74
2023/01/06 10:23:47;;;;;;;8.07;0.40;;;16.20;56.70;;;;;;4865026;29;20185;-74
2023/01/06 10:26:18;;;;;;;0.30;0.30;;;16.30;56.00;;;;;;4867451;29;20230;-74
2023/01/06 10:28:52;;;;;;;0.30;0.30;;;16.50;56.10;;;;;;4869284;29;20189;-75
2023/01/06 10:31:22;;;;;;;0.30;0.30;;;16.70;55.20;;;;;;4851331;29;20209;-74
2023/01/06 10:33:50;;;;;;;0.30;0.30;;;16.80;55.10;;;;;;4870148;29;20192;-74
2023/01/06 10:36:21;;;;;;;0.45;0.45;;;16.90;55.70;;;;;;4865236;29;20631;-74
2023/01/06 10:38:50;;;;;;;0.73;0.40;;;17.10;54.90;;;;;;4864687;29;21052;-74
2023/01/06 10:41:33;;;;;;;0.52;0.30;;;16.90;54.20;;;;;;4873516;29;20212;-74
2023/01/06 10:43:59;;;;;;;0.50;0.40;;;16.80;54.30;;;;;;4880249;29;20202;-74
2023/01/06 10:46:33;;;;;;;0.30;0.30;;;16.40;54.90;;;;;;4902388;29;20639;-74
2023/01/06 10:48:59;;;;;;;0.40;0.40;;;16.10;55.60;;;;;;4906573;29;20200;-74
2023/01/06 10:51:36;;;;;;;0.40;0.40;;;15.70;56.10;;;;;;4999353;28;20870;-74
2023/01/06 10:54:12;;;;;;;0.50;0.50;;;15.40;56.90;;;;;;5002424;28;20193;-74
2023/01/06 10:56:51;;;;;;;0.50;0.40;;;15.10;57.40;;;;;;4998224;28;20197;-74
2023/01/06 10:59:17;;;;;;;0.32;0.32;;;14.80;57.40;;;;;;4998107;28;20626;-74
2023/01/06 11:01:55;;;;;;;0.50;0.50;;;14.50;58.10;;;;;;5000591;28;20201;-74
2023/01/06 11:04:22;;;;;;;0.57;0.45;;;14.20;58.40;;;;;;4995671;28;20177;-76
2023/01/06 11:07:00;;;;;;;0.65;0.65;;;14.00;59.00;;;;;;5000777;28;20217;-75
2023/01/06 11:09:39;;;;;;;0.40;0.40;;;13.70;59.70;;;;;;5002737;28;20185;-75
2023/01/06 11:12:12;;;;;;;0.43;0.43;;;13.30;61.10;;;;;;5000376;28;20216;-75
2023/01/06 11:14:38;;;;;;;0.50;0.50;;;13.10;61.50;;;;;;5009588;28;20284;-75
2023/01/06 11:17:15;;;;;;;0.35;0.35;;;13.00;61.30;;;;;;5002830;28;20192;-75
2023/01/06 11:19:44;;;;;;;0.50;0.50;;;12.80;61.80;;;;;;5004658;28;20272;-74
2023/01/06 11:22:31;;;;;;;1.27;0.30;;;12.70;62.30;;;;;;5000677;28;20187;-74
2023/01/06 11:24:58;;;;;;;0.40;0.40;;;12.80;62.20;;;;;;5004668;28;20181;-74
2023/01/06 11:27:23;;;;;;;0.40;0.40;;;13.00;62.00;;;;;;4998687;28;20184;-74
2023/01/06 11:29:49;;;;;;;0.38;0.38;;;13.30;62.00;;;;;;5004095;28;20189;-74
2023/01/06 11:32:27;;;;;;;0.52;0.45;;;13.60;61.50;;;;;;5004554;28;20207;-74
2023/01/06 11:35:01;;;;;;;1.38;0.40;;;14.00;60.40;;;;;;5002632;28;20185;-75
2023/01/06 11:37:36;;;;;;;0.32;0.32;;;14.20;59.90;;;;;;5006895;28;20780;-75
2023/01/06 11:40:31;;;;;;;0.43;0.43;;;14.30;59.80;;;;;;5001664;28;20711;-75
2023/01/06 11:43:11;;;;;;;0.95;0.50;;;14.70;59.40;;;;;;5001063;28;20646;-75
2023/01/06 11:45:40;;;;;;;0.50;0.50;;;14.90;59.20;;;;;;5002537;28;20268;-74
2023/01/06 11:48:14;;;;;;;0.40;0.40;;;15.20;58.70;;;;;;5011698;28;20190;-75
2023/01/06 11:50:40;;;;;;;0.85;0.50;;;15.50;58.30;;;;;;5004751;28;20180;-75
2023/01/06 11:53:17;;;;;;;0.50;0.47;;;15.30;57.80;;;;;;5001731;28;20189;-75
2023/01/06 11:55:56;;;;;;;0.85;0.85;;;15.20;58.30;;;;;;4995364;28;20202;-73
2023/01/06 11:58:42;;;;;;;0.52;0.52;;;15.20;58.20;;;;;;5002521;28;21031;-73
2023/01/06 12:01:35;;;;;;;0.50;0.45;;;15.10;58.50;;;;;;5006255;28;20244;-74
2023/01/06 12:04:18;;;;;;;0.77;0.60;;;15.20;58.50;;;;;;4997883;28;20260;-74
2023/01/06 12:06:44;;;;;;;2.25;0.73;;;15.10;58.40;;;;;;5010517;28;20668;-74
2023/01/06 12:09:34;;;;;;;0.40;0.40;;;15.10;58.40;;;;;;5004263;28;20268;-75
2023/01/06 12:12:08;;;;;;;0.40;0.40;;;15.00;58.20;;;;;;4999143;28;20573;-74
2023/01/06 12:14:36;;;;;;;0.50;0.50;;;15.00;58.20;;;;;;5008592;28;20177;-75
2023/01/06 12:17:20;;;;;;;0.43;0.43;;;14.70;58.60;;;;;;5005016;28;20216;-74
2023/01/06 12:20:25;;;;;;;0.40;0.40;;;14.30;58.60;;;;;;5007672;28;20574;-75
2023/01/06 12:22:53;;;;;;;0.22;0.22;;;13.80;59.50;;;;;;4983300;28;20646;-75
2023/01/06 12:25:26;;;;;;;0.40;0.40;;;13.60;60.10;;;;;;5006642;28;20764;-74
2023/01/06 12:28:27;;;;;;;0.80;0.73;;;13.40;60.60;;;;;;5000363;28;20189;-74
2023/01/06 12:31:07;;;;;;;0.57;0.57;;;13.30;60.90;;;;;;4978245;28;20372;-74
2023/01/06 12:34:11;;;;;;;1.58;0.60;;;13.20;60.90;;;;;;4982655;28;20637;-73
2023/01/06 12:36:45;;;;;;;0.88;0.88;;;13.10;61.00;;;;;;4977077;28;20205;-75
2023/01/06 12:39:12;;;;;;;0.50;0.50;;;13.10;61.20;;;;;;4976480;28;20240;-74
2023/01/06 12:41:56;;;;;;;0.60;0.50;;;13.00;61.70;;;;;;4983730;28;20202;-75
2023/01/06 12:44:40;;;;;;;0.43;0.43;;;13.00;61.60;;;;;;4984977;28;20229;-74
2023/01/06 12:47:25;;;;;;;0.50;0.50;;;13.00;61.80;;;;;;4967888;28;20217;-74
2023/01/06 12:49:53;;;;;;;2.35;0.75;;;13.10;61.70;;;;;;4982742;28;20190;-74
2023/01/06 12:52:30;;;;;;;1.33;0.52;;;13.20;61.60;;;;;;4986690;28;20233;-74
2023/01/06 12:54:57;;;;;;;0.82;0.82;;;13.40;61.30;;;;;;4984573;28;20221;-74
2023/01/06 12:57:34;;;;;;;0.88;0.88;;;13.50;61.20;;;;;;4984836;28;20583;-73
2023/01/06 13:00:08;;;;;;;0.65;0.65;;;13.60;60.70;;;;;;4983062;28;20212;-74
2023/01/06 13:02:52;;;;;;;1.08;0.60;;;13.70;60.40;;;;;;4983585;28;20212;-74
2023/01/06 13:05:56;;;;;;;0.65;0.65;;;13.60;60.30;;;;;;4972866;28;20209;-74
2023/01/06 13:08:50;;;;;;;0.55;0.45;;;13.40;60.30;;;;;;4965687;28;20276;-74
2023/01/06 13:11:46;;;;;;;1.35;0.40;;;13.00;60.90;;;;;;4966291;28;20182;-75
2023/01/06 13:14:14;;;;;;;0.85;0.70;;;12.80;61.60;;;;;;4960818;28;20334;-74
2023/01/06 13:16:53;;;;;;;0.60;0.60;;;12.90;61.70;;;;;;4963987;28;20201;-75
2023/01/06 13:19:30;;;;;;;0.93;0.43;;;13.00;61.30;;;;;;4964476;28;20194;-74